Flight Track Log - Related Links

Times and Time Zones

All times are in EDT time to prevent confusion due to time zone crossing. See the UPS1122 flight status page for this flight to view local times or setup timezone preferences in your user account.

Time Position Orientation Groundspeed Altitude Reporting Facility
EDT Latitude Longitude Course Direction KTS MPH feet Rate Location/Type
Fri 03:34:32 39.8621 -75.2681 67° East 146 168 600  Level FlightAware ADS-B
Fri 03:34:35 39.8613 -75.2707 248° West 144 166 800 3,600 Climbing FlightAware ADS-B
Fri 03:34:42 39.8592 -75.2762 244° Southwest 146 168 1,200 2,308 Climbing FlightAware ADS-B
Fri 03:34:48 39.8572 -75.2810 242° Southwest 149 171 1,300 1,000 Climbing FlightAware ADS-B
Fri 03:35:00 39.8532 -75.2905 241° Southwest 157 181 1,500 1,304 Climbing FlightAware ADS-B
Fri 03:35:11 39.8492 -75.2998 241° Southwest 165 190 1,800 1,200 Climbing FlightAware ADS-B
Fri 03:35:25 39.8439 -75.3123 241° Southwest 182 209 2,000 1,500 Climbing FlightAware ADS-B
Fri 03:35:39 39.8374 -75.3269 240° Southwest 199 229 2,500 2,211 Climbing FlightAware ADS-B
Fri 03:35:44 39.8350 -75.3321 239° Southwest 202 232 2,700 2,667 Climbing FlightAware ADS-B
Fri 03:35:48 39.8330 -75.3357 234° Southwest 205 236 2,900 2,571 Climbing FlightAware ADS-B
Fri 03:35:51 39.8308 -75.3386 225° Southwest 209 241 3,000 2,571 Climbing FlightAware ADS-B
Fri 03:35:55 39.8281 -75.3414 219° Southwest 214 246 3,200 3,000 Climbing FlightAware ADS-B
Fri 03:35:59 39.8246 -75.3440 210° Southwest 219 252 3,400 2,571 Climbing FlightAware ADS-B
Fri 03:36:02 39.8211 -75.3457 200° South 224 258 3,500 3,000 Climbing FlightAware ADS-B
Fri 03:36:05 39.8180 -75.3466 193° South 228 262 3,700 2,571 Climbing FlightAware ADS-B
Fri 03:36:09 39.8137 -75.3471 185° South 233 268 3,800 2,571 Climbing FlightAware ADS-B
Fri 03:36:12 39.8102 -75.3469 177° South 237 273 4,000 2,571 Climbing FlightAware ADS-B
Fri 03:36:16 39.8067 -75.3461 170° South 240 276 4,100 2,571 Climbing FlightAware ADS-B
Fri 03:36:19 39.8031 -75.3447 163° South 242 278 4,300 3,000 Climbing FlightAware ADS-B
Fri 03:36:22 39.7999 -75.3430 158° South 245 282 4,400 3,000 Climbing FlightAware ADS-B
Fri 03:36:25 39.7966 -75.3405 150° Southeast 246 283 4,600 3,429 Climbing FlightAware ADS-B
Fri 03:36:29 39.7935 -75.3375 143° Southeast 247 284 4,800 3,429 Climbing FlightAware ADS-B
Fri 03:36:32 39.7909 -75.3341 135° Southeast 247 284 5,000 4,000 Climbing FlightAware ADS-B
Fri 03:36:35 39.7886 -75.3307 131° Southeast 247 284 5,200 3,000 Climbing FlightAware ADS-B
Fri 03:36:38 39.7867 -75.3270 124° Southeast 248 285 5,300 3,000 Climbing FlightAware ADS-B
Fri 03:36:41 39.7850 -75.3228 118° Southeast 249 287 5,500 2,571 Climbing FlightAware ADS-B
Fri 03:36:45 39.7836 -75.3180 111° Southeast 251 289 5,600 2,250 Climbing FlightAware ADS-B
Fri 03:36:49 39.7824 -75.3121 105° East 253 291 5,800 2,250 Climbing FlightAware ADS-B
Fri 03:36:53 39.7818 -75.3053 97° East 258 297 5,900 1,714 Climbing FlightAware ADS-B
Fri 03:36:56 39.7817 -75.3002 91° East 262 302 6,000 2,526 Climbing FlightAware ADS-B
Fri 03:37:12 39.7829 -75.2750 86° East 270 311 6,700 2,903 Climbing FlightAware ADS-B
Fri 03:37:27 39.7838 -75.2495 87° East 278 320 7,500 3,231 Climbing FlightAware ADS-B
Fri 03:37:38 39.7842 -75.2313 88° East 282 325 8,100 2,769 Climbing FlightAware ADS-B
Fri 03:37:53 39.7847 -75.2050 89° East 290 334 8,700 2,800 Climbing FlightAware ADS-B
Fri 03:38:08 39.7854 -75.1789 88° East 297 342 9,500 2,400 Climbing FlightAware ADS-B
Fri 03:38:38 39.7862 -75.1241 89° East 325 374 10,500 1,500 Climbing FlightAware ADS-B
Fri 03:39:04 39.7870 -75.0677 89° East 365 420 10,900 1,241 Climbing FlightAware ADS-B
Fri 03:39:36 39.7878 -74.9980 89° East 375 432 11,700 667 Climbing FlightAware ADS-B
Fri 03:40:07 39.7890 -74.9284 89° East 371 427 11,600  Descending FlightAware ADS-B
Fri 03:40:40 39.7906 -74.8552 88° East 370 426 11,700 1,182 Climbing FlightAware ADS-B
Fri 03:41:13 39.7924 -74.7801 88° East 377 434 12,900 2,286 Climbing FlightAware ADS-B
Fri 03:41:22 39.7937 -74.7592 85° East 380 437 13,300 3,143 Climbing FlightAware ADS-B
Fri 03:41:34 39.7995 -74.7319 75° East 379 436 14,000 3,300 Climbing FlightAware ADS-B
Fri 03:41:42 39.8054 -74.7162 64° Northeast 379 436 14,400 3,000 Climbing FlightAware ADS-B
Fri 03:41:46 39.8092 -74.7085 57° Northeast 379 436 14,600 3,429 Climbing FlightAware ADS-B
Fri 03:41:49 39.8128 -74.7023 53° Northeast 378 435 14,800 3,273 Climbing FlightAware ADS-B
Fri 03:41:57 39.8221 -74.6894 47° Northeast 376 433 15,200 2,923 Climbing FlightAware ADS-B
Fri 03:42:28 39.8644 -74.6462 38° Northeast 377 434 16,700 2,852 Climbing FlightAware ADS-B
Fri 03:42:58 39.9068 -74.6051 37° Northeast 383 441 18,100 2,625 Climbing FlightAware ADS-B
Fri 03:43:16 39.9327 -74.5793 37° Northeast 388 447 18,800 2,327 Climbing FlightAware ADS-B
Fri 03:43:47 39.9744 -74.5284 43° Northeast 395 455 20,000 2,032 Climbing FlightAware ADS-B
Fri 03:44:18 40.0132 -74.4714 48° Northeast 412 474 20,900 968 Climbing FlightAware ADS-B
Fri 03:44:49 40.0523 -74.4130 49° Northeast 423 487 21,000 98 Climbing FlightAware ADS-B
Fri 03:45:19 40.0917 -74.3546 49° Northeast 427 491 21,000  Level FlightAware ADS-B
Fri 03:45:49 40.1316 -74.2955 49° Northeast 426 490 21,000  Level FlightAware ADS-B
Fri 03:46:22 40.1739 -74.2330 48° Northeast 424 488 21,000  Level FlightAware ADS-B
Fri 03:46:54 40.2155 -74.1716 48° Northeast 426 490 21,000  Level FlightAware ADS-B
Fri 03:47:24 40.2547 -74.1135 49° Northeast 426 490 21,000  Level FlightAware ADS-B
Fri 03:47:55 40.2954 -74.0532 48° Northeast 424 488 21,000  Level FlightAware ADS-B
Fri 03:48:25 40.3346 -73.9946 49° Northeast 424 488 21,000  Level FlightAware ADS-B
Fri 03:48:55 40.3741 -73.9354 49° Northeast 425 489 21,000  Level FlightAware ADS-B
Fri 03:49:26 40.4137 -73.8761 49° Northeast 428 493 21,000  Level FlightAware ADS-B
Fri 03:49:56 40.4534 -73.8165 49° Northeast 427 491 21,000  Level FlightAware ADS-B
Fri 03:50:27 40.4928 -73.7572 49° Northeast 428 493 21,000  Level FlightAware ADS-B
Fri 03:50:57 40.5323 -73.6976 49° Northeast 431 496 21,000  Level FlightAware ADS-B
Fri 03:51:27 40.5722 -73.6373 49° Northeast 432 497 21,000  Level FlightAware ADS-B
Fri 03:51:57 40.6119 -73.5773 49° Northeast 432 497 21,000  Level FlightAware ADS-B
Fri 03:52:27 40.6513 -73.5175 49° Northeast 434 499 21,000  Level FlightAware ADS-B
Fri 03:52:57 40.6908 -73.4576 49° Northeast 431 496 21,000  Level FlightAware ADS-B
Fri 03:53:28 40.7305 -73.3972 49° Northeast 432 497 21,000  Level FlightAware ADS-B
Fri 03:53:58 40.7704 -73.3364 49° Northeast 436 502 21,000  Level FlightAware ADS-B
Fri 03:54:29 40.8149 -73.2762 46° Northeast 437 503 21,000  Level FlightAware ADS-B
Fri 03:54:59 40.8608 -73.2223 42° Northeast 436 502 21,000  Level FlightAware ADS-B
Fri 03:55:31 40.9091 -73.1661 41° Northeast 441 507 21,000 -286 Level FlightAware ADS-B
Fri 03:56:02 40.9557 -73.1117 41° Northeast 440 506 20,700 -1,800 Descending FlightAware ADS-B
Fri 03:56:41 41.0150 -73.0422 41° Northeast 437 503 18,900 -2,541 Descending FlightAware ADS-B
Fri 03:57:27 41.0830 -72.9630 41° Northeast 423 487 17,100 -2,512 Descending FlightAware ADS-B
Fri 03:58:07 41.1390 -72.8970 42° Northeast 417 480 15,300 -2,775 Descending FlightAware ADS-B
Fri 03:58:47 41.1950 -72.8300 42° Northeast 414 476 13,400 -2,400 Descending FlightAware ADS-B
Fri 03:59:32 41.2560 -72.7590 41° Northeast 387 445 11,900 -1,878 Descending FlightAware ADS-B
Fri 04:00:42 41.3530 -72.7200 17° North 361 415 9,800 -1,326 Descending FlightAware ADS-B
Fri 04:01:07 41.3900 -72.7280 351° North 361 415 9,800 -160 Level FlightAware ADS-B
Fri 04:01:57 41.4670 -72.7500 348° North 313 360 9,600 -150 Descending FlightAware ADS-B
Fri 04:02:27 41.5040 -72.7590 350° North 313 360 9,600  Level FlightAware ADS-B
Fri 04:02:47 41.5280 -72.7660 348° North 313 360 9,600  Level FlightAware ADS-B
Fri 04:03:07 41.5520 -72.7720 349° North 313 360 9,600 -2,264 Level FlightAware ADS-B
Fri 04:03:40 41.6122 -72.7872 349° North 278 320 7,600 -2,957 Descending Boston Center
Fri 04:04:16 41.6578 -72.8014 347° North 266 306 6,200 -1,800 Descending Boston Center
Fri 04:04:40 41.6767 -72.8014 360° North 268 308 5,800 -1,279 Descending Boston Center
Fri 04:05:17 41.7244 -72.8183 345° North 231 266 4,900 -1,300 Descending Boston Center
Fri 04:05:40 41.7494 -72.8214 355° North 243 280 4,500 -1,100 Descending Boston Center
Fri 04:06:17 41.7869 -72.8356 344° North 238 274 3,800 -800 Descending Boston Center
Fri 04:06:40 41.7975 -72.8300 21° North 233 268 3,700 -1,082 Descending Boston Center
Fri 04:07:18 41.8392 -72.8219 North 196 226 2,700 -1,300 Descending Boston Center
Fri 04:07:40 41.8497 -72.8053 50° Northeast 213 245 2,400 -787 Descending Boston Center
Fri 04:08:19 41.8725 -72.7775 42° Northeast 158 182 1,900 -800 Descending Boston Center
Fri 04:08:40 41.8789 -72.7692 44° Northeast 163 188 1,600 -800 Descending Boston Center
Fri 04:09:19 41.8997 -72.7414 45° Northeast 128 147 1,100 -700 Descending Boston Center
Fri 04:09:40 41.9061 -72.7358 33° Northeast 141 162 900 -689 Descending Boston Center
Fri 04:10:20 41.9228 -72.7136 45° Northeast 122 140 400 -750 Descending Boston Center
Fri 04:12:00 41.9333 -72.6833 45° Northeast  Level FlightAware Approximate
Fri 04:19:00 41.9392 -72.6834 45° Northeast  Level Estimated
Fri 04:20:00 41.9333 -72.6833 45° Northeast  Level FlightAware Approximate
Fri 04:21:00 41.9392 -72.6834 45° Northeast  Level Estimated

Login

Don't have an account? Register now (free) for customized features, flight alerts, and more!